Time,TemperatureF,DewpointF,PressureIn,WindDirection,WindDirectionDegrees,WindSpeedMPH,WindSpeedGustMPH,Humidity,HourlyPrecipIn,Conditions,Clouds,dailyrainin,SolarRadiationWatts/m^2,SoftwareType,DateUTC
2013-06-07 00:03:00,71.0,71.0,-100.00,South,177,7.0,15.0,99,0.17,,,0.70,0.000000,,2013-06-07 04:03:00,
2013-06-07 00:33:00,71.0,71.0,-100.00,SSE,160,7.0,13.0,99,0.19,,,0.89,0.000000,,2013-06-07 04:33:00,
2013-06-07 00:42:00,71.0,71.0,-100.00,SSE,160,7.0,13.0,99,0.19,,,0.89,0.000000,,2013-06-07 04:42:00,
2013-06-07 00:53:00,71.0,71.0,-100.00,SSE,160,7.0,13.0,99,0.19,,,0.89,0.000000,,2013-06-07 04:53:00,
2013-06-07 01:03:00,71.0,71.0,-100.00,SSE,160,7.0,13.0,99,0.19,,,0.89,0.000000,,2013-06-07 05:03:00,
2013-06-07 01:32:00,70.0,70.0,-100.00,SSE,164,7.0,15.0,99,0.11,,,1.00,0.000000,,2013-06-07 05:32:00,
2013-06-07 01:43:00,70.0,70.0,-100.00,SSE,164,7.0,15.0,99,0.11,,,1.00,0.000000,,2013-06-07 05:43:00,
2013-06-07 01:52:00,70.0,70.0,-100.00,SSE,164,7.0,15.0,99,0.11,,,1.00,0.000000,,2013-06-07 05:52:00,
2013-06-07 02:02:00,70.0,70.0,-100.00,SSE,164,7.0,15.0,99,0.11,,,1.00,0.000000,,2013-06-07 06:02:00,
2013-06-07 02:32:00,70.0,70.0,-100.00,SSW,197,7.0,16.0,99,0.20,,,1.20,0.000000,,2013-06-07 06:32:00,
2013-06-07 02:43:00,70.0,70.0,-100.00,SSW,197,7.0,16.0,99,0.20,,,1.20,0.000000,,2013-06-07 06:43:00,
2013-06-07 02:52:00,70.0,70.0,-100.00,SSW,197,7.0,16.0,99,0.20,,,1.20,0.000000,,2013-06-07 06:52:00,
2013-06-07 03:02:00,70.0,70.0,-100.00,SSW,197,7.0,16.0,99,0.20,,,1.20,0.000000,,2013-06-07 07:02:00,
2013-06-07 03:32:00,70.0,70.0,-100.00,SSE,156,6.0,12.0,99,0.02,,,1.21,0.000000,,2013-06-07 07:32:00,
2013-06-07 03:42:00,70.0,70.0,-100.00,SSE,156,6.0,12.0,99,0.02,,,1.21,0.000000,,2013-06-07 07:42:00,
2013-06-07 03:52:00,70.0,70.0,-100.00,SSE,156,6.0,12.0,99,0.02,,,1.21,0.000000,,2013-06-07 07:52:00,
2013-06-07 04:02:00,70.0,70.0,-100.00,SSE,156,6.0,12.0,99,0.02,,,1.21,0.000000,,2013-06-07 08:02:00,
2013-06-07 04:32:00,70.0,70.0,-100.00,SW,221,6.0,16.0,99,0.15,,,1.36,0.000000,,2013-06-07 08:32:00,
2013-06-07 04:43:00,70.0,70.0,-100.00,SW,221,6.0,16.0,99,0.15,,,1.36,0.000000,,2013-06-07 08:43:00,
2013-06-07 04:52:00,70.0,70.0,-100.00,SW,221,6.0,16.0,99,0.15,,,1.36,0.000000,,2013-06-07 08:52:00,
2013-06-07 05:02:00,70.0,70.0,-100.00,SW,221,6.0,16.0,99,0.15,,,1.36,0.000000,,2013-06-07 09:02:00,
2013-06-07 05:32:00,71.0,71.0,-100.00,SSE,147,6.0,11.0,99,0.00,,,1.36,0.000000,,2013-06-07 09:32:00,
2013-06-07 05:43:00,71.0,71.0,-100.00,SSE,147,6.0,11.0,99,0.00,,,1.36,0.000000,,2013-06-07 09:43:00,
2013-06-07 05:53:00,71.0,71.0,-100.00,SSE,147,6.0,11.0,99,0.00,,,1.36,0.000000,,2013-06-07 09:53:00,
2013-06-07 06:03:00,71.0,71.0,-100.00,SSE,147,6.0,11.0,99,0.00,,,1.36,0.000000,,2013-06-07 10:03:00,
2013-06-07 06:33:00,71.0,71.0,-100.00,SE,138,8.0,13.0,99,0.02,,,1.37,0.000000,,2013-06-07 10:33:00,
2013-06-07 06:43:00,71.0,71.0,-100.00,SE,138,8.0,13.0,99,0.02,,,1.37,0.000000,,2013-06-07 10:43:00,
2013-06-07 06:53:00,71.0,71.0,-100.00,SE,138,8.0,13.0,99,0.02,,,1.37,0.000000,,2013-06-07 10:53:00,
2013-06-07 07:02:00,71.0,71.0,-100.00,SE,138,8.0,13.0,99,0.02,,,1.37,0.000000,,2013-06-07 11:02:00,
2013-06-07 07:32:00,71.0,71.0,-100.00,SE,126,6.0,11.0,99,0.14,,,1.46,3.000000,,2013-06-07 11:32:00,
2013-06-07 07:42:00,71.0,71.0,-100.00,SE,126,6.0,11.0,99,0.14,,,1.46,3.000000,,2013-06-07 11:42:00,
2013-06-07 07:52:00,71.0,71.0,-100.00,SE,126,6.0,11.0,99,0.14,,,1.46,3.000000,,2013-06-07 11:52:00,
2013-06-07 08:02:00,71.0,71.0,-100.00,SE,126,6.0,11.0,99,0.14,,,1.46,3.000000,,2013-06-07 12:02:00,
2013-06-07 08:33:00,71.0,71.0,-100.00,East,99,6.0,13.0,99,0.17,,,1.40,9.000000,,2013-06-07 12:33:00,
2013-06-07 08:42:00,71.0,71.0,-100.00,East,99,6.0,13.0,99,0.17,,,1.40,9.000000,,2013-06-07 12:42:00,
2013-06-07 08:52:00,71.0,71.0,-100.00,East,99,6.0,13.0,99,0.17,,,1.40,9.000000,,2013-06-07 12:52:00,
2013-06-07 09:02:00,71.0,71.0,-100.00,East,99,6.0,13.0,99,0.17,,,1.40,9.000000,,2013-06-07 13:02:00,
2013-06-07 09:32:00,71.0,71.0,-100.00,ENE,76,6.0,16.0,99,0.14,,,1.54,55.000000,,2013-06-07 13:32:00,
2013-06-07 09:43:00,71.0,71.0,-100.00,ENE,76,6.0,16.0,99,0.14,,,1.54,55.000000,,2013-06-07 13:43:00,
2013-06-07 09:52:00,71.0,71.0,-100.00,ENE,76,6.0,16.0,99,0.14,,,1.54,55.000000,,2013-06-07 13:52:00,
2013-06-07 10:02:00,71.0,71.0,-100.00,ENE,76,6.0,16.0,99,0.14,,,1.54,55.000000,,2013-06-07 14:02:00,
2013-06-07 10:33:00,72.0,71.0,-100.00,NE,52,7.0,15.0,98,0.02,,,1.56,115.000000,,2013-06-07 14:33:00,
2013-06-07 10:42:00,72.0,71.0,-100.00,NE,52,7.0,15.0,98,0.02,,,1.56,115.000000,,2013-06-07 14:42:00,
2013-06-07 10:52:00,72.0,71.0,-100.00,NE,52,7.0,15.0,98,0.02,,,1.56,115.000000,,2013-06-07 14:52:00,
2013-06-07 11:03:00,72.0,71.0,-100.00,NE,52,7.0,15.0,98,0.02,,,1.56,115.000000,,2013-06-07 15:03:00,
2013-06-07 11:33:00,71.0,70.0,-100.00,NE,40,7.0,16.0,97,0.02,,,-99.99,85.000000,,2013-06-07 15:33:00,
2013-06-07 11:43:00,71.0,70.0,-100.00,NE,40,7.0,16.0,97,0.02,,,-99.99,85.000000,,2013-06-07 15:43:00,
2013-06-07 11:53:00,71.0,70.0,-100.00,NE,40,7.0,16.0,97,0.02,,,-99.99,85.000000,,2013-06-07 15:53:00,
2013-06-07 12:03:00,71.0,70.0,-100.00,NE,40,7.0,16.0,97,0.02,,,-99.99,85.000000,,2013-06-07 16:03:00,
2013-06-07 12:33:00,72.0,71.0,-100.00,NE,45,8.0,19.0,97,0.11,,,1.69,131.000000,,2013-06-07 16:33:00,
2013-06-07 12:43:00,72.0,71.0,-100.00,NE,45,8.0,19.0,97,0.11,,,1.69,131.000000,,2013-06-07 16:43:00,
2013-06-07 12:53:00,72.0,71.0,-100.00,NE,45,8.0,19.0,97,0.11,,,1.69,131.000000,,2013-06-07 16:53:00,
2013-06-07 13:03:00,72.0,71.0,-100.00,NE,45,8.0,19.0,97,0.11,,,1.69,131.000000,,2013-06-07 17:03:00,
2013-06-07 13:05:00,72.0,71.0,-100.00,NNE,24,7.0,16.0,97,0.07,,,1.76,161.000000,,2013-06-07 17:05:00,
2013-06-07 13:32:00,72.0,71.0,-100.00,NNE,24,7.0,16.0,97,0.07,,,1.76,161.000000,,2013-06-07 17:32:00,
2013-06-07 13:43:00,72.0,71.0,-100.00,NNE,24,7.0,16.0,97,0.07,,,1.76,161.000000,,2013-06-07 17:43:00,
2013-06-07 13:53:00,72.0,71.0,-100.00,NNE,24,7.0,16.0,97,0.07,,,1.76,161.000000,,2013-06-07 17:53:00,
2013-06-07 14:05:00,76.0,74.0,-100.00,NNE,18,7.0,17.0,93,0.02,,,1.78,484.000000,,2013-06-07 18:05:00,
2013-06-07 14:38:00,76.0,74.0,-100.00,NNE,18,7.0,17.0,93,0.02,,,1.78,484.000000,,2013-06-07 18:38:00,
2013-06-07 14:45:00,76.0,74.0,-100.00,NNE,18,7.0,17.0,93,0.02,,,1.78,484.000000,,2013-06-07 18:45:00,
2013-06-07 15:05:00,80.0,74.0,-100.00,North,8,8.0,15.0,83,0.00,,,1.78,665.000000,,2013-06-07 19:05:00,
2013-06-07 15:40:00,80.0,74.0,-100.00,North,8,8.0,15.0,83,0.00,,,1.78,665.000000,,2013-06-07 19:40:00,
2013-06-07 15:59:00,80.0,74.0,-100.00,North,8,8.0,15.0,83,0.00,,,1.78,665.000000,,2013-06-07 19:59:00,
2013-06-07 16:42:00,81.0,73.0,-100.00,NNW,339,7.0,17.0,78,0.00,,,1.69,618.000000,,2013-06-07 20:42:00,
2013-06-07 16:52:00,81.0,73.0,-100.00,NNW,339,7.0,17.0,78,0.00,,,1.69,618.000000,,2013-06-07 20:52:00,
2013-06-07 16:59:00,81.0,73.0,-100.00,NNW,339,7.0,17.0,78,0.00,,,1.69,618.000000,,2013-06-07 20:59:00,
2013-06-07 17:05:00,82.0,73.0,-100.00,NNW,335,7.0,13.0,74,0.00,,,1.65,493.000000,,2013-06-07 21:05:00,
2013-06-07 17:43:00,82.0,73.0,-100.00,NNW,335,7.0,13.0,74,0.00,,,1.65,493.000000,,2013-06-07 21:43:00,
2013-06-07 18:03:00,82.0,73.0,-100.00,NNW,335,7.0,13.0,74,0.00,,,1.65,493.000000,,2013-06-07 22:03:00,
2013-06-07 18:05:00,80.0,73.0,-100.00,NNW,327,6.0,14.0,80,0.00,,,1.64,105.000000,,2013-06-07 22:05:00,
2013-06-07 18:39:00,80.0,73.0,-100.00,NNW,327,6.0,14.0,80,0.00,,,1.64,105.000000,,2013-06-07 22:39:00,
2013-06-07 18:49:00,80.0,73.0,-100.00,NNW,327,6.0,14.0,80,0.00,,,1.64,105.000000,,2013-06-07 22:49:00,
2013-06-07 19:00:00,80.0,73.0,-100.00,NNW,327,6.0,14.0,80,0.00,,,1.64,105.000000,,2013-06-07 23:00:00,
2013-06-07 19:05:00,80.0,75.0,-100.00,WNW,296,5.0,12.0,86,0.00,,,1.64,90.000000,,2013-06-07 23:05:00,
2013-06-07 19:41:00,80.0,75.0,-100.00,WNW,296,5.0,12.0,86,0.00,,,1.64,90.000000,,2013-06-07 23:41:00,
2013-06-07 19:55:00,80.0,75.0,-100.00,WNW,296,5.0,12.0,86,0.00,,,1.64,90.000000,,2013-06-07 23:55:00,
2013-06-07 20:05:00,76.0,74.0,-100.00,WNW,294,4.0,7.0,94,0.00,,,1.62,21.000000,,2013-06-08 00:05:00,
2013-06-07 20:37:00,76.0,74.0,-100.00,WNW,294,4.0,7.0,94,0.00,,,1.62,21.000000,,2013-06-08 00:37:00,
2013-06-07 20:48:00,76.0,74.0,-100.00,WNW,294,4.0,7.0,94,0.00,,,1.62,21.000000,,2013-06-08 00:48:00,
2013-06-07 21:02:00,76.0,74.0,-100.00,WNW,294,4.0,7.0,94,0.00,,,1.62,21.000000,,2013-06-08 01:02:00,
2013-06-07 21:05:00,74.0,73.0,-100.00,WNW,301,4.0,7.0,97,0.00,,,1.58,2.000000,,2013-06-08 01:05:00,
2013-06-07 21:40:00,74.0,73.0,-100.00,WNW,301,4.0,7.0,97,0.00,,,1.58,2.000000,,2013-06-08 01:40:00,
2013-06-07 21:49:00,74.0,73.0,-100.00,WNW,301,4.0,7.0,97,0.00,,,1.58,2.000000,,2013-06-08 01:49:00,
2013-06-07 22:03:00,74.0,73.0,-100.00,WNW,301,4.0,7.0,97,0.00,,,1.58,2.000000,,2013-06-08 02:03:00,
2013-06-07 22:05:00,73.0,71.0,-100.00,WNW,301,3.0,17.0,95,0.01,,,1.56,0.000000,,2013-06-08 02:05:00,
2013-06-07 22:37:00,73.0,71.0,-100.00,WNW,301,3.0,17.0,95,0.01,,,1.56,0.000000,,2013-06-08 02:37:00,
2013-06-07 22:49:00,73.0,71.0,-100.00,WNW,301,3.0,17.0,95,0.01,,,1.56,0.000000,,2013-06-08 02:49:00,
2013-06-07 23:00:00,73.0,71.0,-100.00,WNW,301,3.0,17.0,95,0.01,,,1.56,0.000000,,2013-06-08 03:00:00,
2013-06-07 23:40:00,72.0,71.0,-100.00,NW,318,5.0,9.0,98,0.01,,,1.40,0.000000,,2013-06-08 03:40:00,
2013-06-07 23:54:00,72.0,71.0,-100.00,NW,318,5.0,9.0,98,0.01,,,1.40,0.000000,,2013-06-08 03:54:00,